Aviation Digital Data Service (ADDS)

Output produced by METARs form (0323 UTC 28 July 2015)
found at http://www.aviationweather.gov/adds/metars/
 
KSPI 272341Z 2800/2824 08005KT P6SM SCT035 OVC250 
     TEMPO 2802/2804 6SM -SHRA BR BKN035 
     FM280800 08003KT 3SM BR BKN250 
     FM281500 13008KT P6SM SCT035